sensor_id;sensor_type;location;lat;lon;timestamp;P1;durP1;ratioP1;P2;durP2;ratioP2
18172;SDS011;9211;48.818;9.312;2023-06-26T00:00:11;11.82;;;7.32;;
18172;SDS011;9211;48.818;9.312;2023-06-26T00:02:39;13.20;;;7.50;;
18172;SDS011;9211;48.818;9.312;2023-06-26T00:05:06;13.35;;;7.70;;
18172;SDS011;9211;48.818;9.312;2023-06-26T00:07:33;10.93;;;7.47;;
18172;SDS011;9211;48.818;9.312;2023-06-26T00:10:00;12.95;;;7.32;;
18172;SDS011;9211;48.818;9.312;2023-06-26T00:12:28;10.82;;;7.20;;
18172;SDS011;9211;48.818;9.312;2023-06-26T00:14:56;10.45;;;7.20;;
18172;SDS011;9211;48.818;9.312;2023-06-26T00:17:24;11.90;;;7.60;;
18172;SDS011;9211;48.818;9.312;2023-06-26T00:19:51;11.32;;;7.65;;
18172;SDS011;9211;48.818;9.312;2023-06-26T00:22:18;11.55;;;7.57;;
18172;SDS011;9211;48.818;9.312;2023-06-26T00:24:45;11.82;;;7.32;;
18172;SDS011;9211;48.818;9.312;2023-06-26T00:27:11;13.65;;;7.60;;
18172;SDS011;9211;48.818;9.312;2023-06-26T00:29:38;13.50;;;7.55;;
18172;SDS011;9211;48.818;9.312;2023-06-26T00:32:07;11.50;;;7.57;;
18172;SDS011;9211;48.818;9.312;2023-06-26T00:34:34;14.27;;;7.85;;
18172;SDS011;9211;48.818;9.312;2023-06-26T00:37:01;11.60;;;7.45;;
18172;SDS011;9211;48.818;9.312;2023-06-26T00:39:30;10.93;;;7.55;;
18172;SDS011;9211;48.818;9.312;2023-06-26T00:41:57;10.80;;;7.40;;
18172;SDS011;9211;48.818;9.312;2023-06-26T00:44:23;14.02;;;7.55;;
18172;SDS011;9211;48.818;9.312;2023-06-26T00:46:51;9.87;;;7.20;;
18172;SDS011;9211;48.818;9.312;2023-06-26T00:49:20;11.27;;;7.68;;
18172;SDS011;9211;48.818;9.312;2023-06-26T00:51:48;10.32;;;7.32;;
18172;SDS011;9211;48.818;9.312;2023-06-26T00:54:15;11.32;;;7.50;;
18172;SDS011;9211;48.818;9.312;2023-06-26T00:56:45;11.18;;;7.75;;
18172;SDS011;9211;48.818;9.312;2023-06-26T00:59:13;12.25;;;7.85;;
18172;SDS011;9211;48.818;9.312;2023-06-26T01:01:40;11.82;;;7.25;;
18172;SDS011;9211;48.818;9.312;2023-06-26T01:04:09;12.43;;;7.75;;
18172;SDS011;9211;48.818;9.312;2023-06-26T01:06:44;10.95;;;7.45;;
18172;SDS011;9211;48.818;9.312;2023-06-26T01:09:15;11.43;;;7.43;;
18172;SDS011;9211;48.818;9.312;2023-06-26T01:11:43;11.13;;;7.47;;
18172;SDS011;9211;48.818;9.312;2023-06-26T01:14:10;13.80;;;7.80;;
18172;SDS011;9211;48.818;9.312;2023-06-26T01:16:37;12.35;;;7.80;;
18172;SDS011;9211;48.818;9.312;2023-06-26T01:19:05;11.10;;;7.40;;
18172;SDS011;9211;48.818;9.312;2023-06-26T01:21:37;12.35;;;7.88;;
18172;SDS011;9211;48.818;9.312;2023-06-26T01:24:12;11.70;;;7.93;;
18172;SDS011;9211;48.818;9.312;2023-06-26T01:26:49;10.45;;;7.38;;
18172;SDS011;9211;48.818;9.312;2023-06-26T01:29:17;12.63;;;7.55;;
18172;SDS011;9211;48.818;9.312;2023-06-26T01:31:46;11.73;;;8.23;;
18172;SDS011;9211;48.818;9.312;2023-06-26T01:34:15;11.32;;;7.70;;
18172;SDS011;9211;48.818;9.312;2023-06-26T01:36:43;11.82;;;7.50;;
18172;SDS011;9211;48.818;9.312;2023-06-26T01:39:10;11.23;;;7.10;;
18172;SDS011;9211;48.818;9.312;2023-06-26T01:41:38;11.15;;;7.30;;
18172;SDS011;9211;48.818;9.312;2023-06-26T01:44:15;12.68;;;7.85;;
18172;SDS011;9211;48.818;9.312;2023-06-26T01:47:02;11.20;;;7.50;;
18172;SDS011;9211;48.818;9.312;2023-06-26T01:49:33;11.95;;;7.43;;
18172;SDS011;9211;48.818;9.312;2023-06-26T01:52:07;13.27;;;7.70;;
18172;SDS011;9211;48.818;9.312;2023-06-26T01:54:46;10.90;;;7.55;;
18172;SDS011;9211;48.818;9.312;2023-06-26T01:57:22;10.45;;;7.10;;
18172;SDS011;9211;48.818;9.312;2023-06-26T01:59:52;10.93;;;7.32;;
18172;SDS011;9211;48.818;9.312;2023-06-26T02:02:19;11.50;;;7.30;;
18172;SDS011;9211;48.818;9.312;2023-06-26T02:04:46;11.23;;;7.43;;
18172;SDS011;9211;48.818;9.312;2023-06-26T02:07:14;10.38;;;7.20;;
18172;SDS011;9211;48.818;9.312;2023-06-26T02:09:41;12.63;;;7.65;;
18172;SDS011;9211;48.818;9.312;2023-06-26T02:12:09;11.38;;;7.72;;
18172;SDS011;9211;48.818;9.312;2023-06-26T02:14:36;11.75;;;7.70;;
18172;SDS011;9211;48.818;9.312;2023-06-26T02:17:05;12.30;;;7.60;;
18172;SDS011;9211;48.818;9.312;2023-06-26T02:19:34;11.82;;;7.90;;
18172;SDS011;9211;48.818;9.312;2023-06-26T02:22:01;10.25;;;7.30;;
18172;SDS011;9211;48.818;9.312;2023-06-26T02:24:28;11.18;;;7.60;;
18172;SDS011;9211;48.818;9.312;2023-06-26T02:26:57;11.13;;;7.50;;
18172;SDS011;9211;48.818;9.312;2023-06-26T02:29:24;13.05;;;7.70;;
18172;SDS011;9211;48.818;9.312;2023-06-26T02:31:50;10.83;;;7.50;;
18172;SDS011;9211;48.818;9.312;2023-06-26T02:34:23;10.40;;;7.25;;
18172;SDS011;9211;48.818;9.312;2023-06-26T02:36:50;13.27;;;7.90;;
18172;SDS011;9211;48.818;9.312;2023-06-26T02:39:19;10.70;;;7.30;;
18172;SDS011;9211;48.818;9.312;2023-06-26T02:41:47;11.82;;;7.68;;
18172;SDS011;9211;48.818;9.312;2023-06-26T02:44:15;12.18;;;7.90;;
18172;SDS011;9211;48.818;9.312;2023-06-26T02:46:42;11.80;;;7.70;;
18172;SDS011;9211;48.818;9.312;2023-06-26T02:49:09;11.65;;;7.82;;
18172;SDS011;9211;48.818;9.312;2023-06-26T02:51:37;11.57;;;8.20;;
18172;SDS011;9211;48.818;9.312;2023-06-26T02:54:12;10.80;;;7.50;;
18172;SDS011;9211;48.818;9.312;2023-06-26T02:56:41;11.15;;;7.90;;
18172;SDS011;9211;48.818;9.312;2023-06-26T02:59:08;11.93;;;7.82;;
18172;SDS011;9211;48.818;9.312;2023-06-26T03:01:35;12.03;;;7.90;;
18172;SDS011;9211;48.818;9.312;2023-06-26T03:04:02;12.20;;;8.02;;
18172;SDS011;9211;48.818;9.312;2023-06-26T03:06:31;12.43;;;7.88;;
18172;SDS011;9211;48.818;9.312;2023-06-26T03:08:59;10.70;;;7.75;;
18172;SDS011;9211;48.818;9.312;2023-06-26T03:11:27;11.00;;;7.93;;
18172;SDS011;9211;48.818;9.312;2023-06-26T03:13:54;13.35;;;8.13;;
18172;SDS011;9211;48.818;9.312;2023-06-26T03:16:21;12.75;;;7.60;;
18172;SDS011;9211;48.818;9.312;2023-06-26T03:18:48;13.63;;;8.27;;
18172;SDS011;9211;48.818;9.312;2023-06-26T03:21:15;13.23;;;8.02;;
18172;SDS011;9211;48.818;9.312;2023-06-26T03:23:43;11.27;;;7.70;;
18172;SDS011;9211;48.818;9.312;2023-06-26T03:26:12;12.37;;;7.93;;
18172;SDS011;9211;48.818;9.312;2023-06-26T03:28:39;11.95;;;8.00;;
18172;SDS011;9211;48.818;9.312;2023-06-26T03:31:08;12.25;;;8.02;;
18172;SDS011;9211;48.818;9.312;2023-06-26T03:33:35;11.48;;;8.00;;
18172;SDS011;9211;48.818;9.312;2023-06-26T03:36:03;13.35;;;8.40;;
18172;SDS011;9211;48.818;9.312;2023-06-26T03:38:31;13.27;;;7.82;;
18172;SDS011;9211;48.818;9.312;2023-06-26T03:40:59;13.27;;;8.10;;
18172;SDS011;9211;48.818;9.312;2023-06-26T03:43:27;12.30;;;8.10;;
18172;SDS011;9211;48.818;9.312;2023-06-26T03:46:11;11.32;;;8.05;;
18172;SDS011;9211;48.818;9.312;2023-06-26T03:48:38;11.18;;;7.90;;
18172;SDS011;9211;48.818;9.312;2023-06-26T03:51:06;11.35;;;7.90;;
18172;SDS011;9211;48.818;9.312;2023-06-26T03:53:33;11.68;;;8.05;;
18172;SDS011;9211;48.818;9.312;2023-06-26T03:56:00;13.05;;;8.40;;
18172;SDS011;9211;48.818;9.312;2023-06-26T03:58:29;13.00;;;8.18;;
18172;SDS011;9211;48.818;9.312;2023-06-26T04:00:56;13.70;;;8.40;;
18172;SDS011;9211;48.818;9.312;2023-06-26T04:03:23;14.88;;;8.20;;
18172;SDS011;9211;48.818;9.312;2023-06-26T04:05:51;13.35;;;8.27;;
18172;SDS011;9211;48.818;9.312;2023-06-26T04:08:18;12.35;;;8.02;;
18172;SDS011;9211;48.818;9.312;2023-06-26T04:10:46;13.50;;;8.33;;
18172;SDS011;9211;48.818;9.312;2023-06-26T04:13:13;12.87;;;8.37;;
18172;SDS011;9211;48.818;9.312;2023-06-26T04:15:42;13.25;;;8.65;;
18172;SDS011;9211;48.818;9.312;2023-06-26T04:18:09;13.27;;;8.45;;
18172;SDS011;9211;48.818;9.312;2023-06-26T04:20:38;14.13;;;8.70;;
18172;SDS011;9211;48.818;9.312;2023-06-26T04:23:06;15.25;;;8.30;;
18172;SDS011;9211;48.818;9.312;2023-06-26T04:25:32;13.37;;;8.40;;
18172;SDS011;9211;48.818;9.312;2023-06-26T04:27:59;12.70;;;8.63;;
18172;SDS011;9211;48.818;9.312;2023-06-26T04:30:26;12.57;;;8.20;;
18172;SDS011;9211;48.818;9.312;2023-06-26T04:32:55;12.23;;;8.23;;
18172;SDS011;9211;48.818;9.312;2023-06-26T04:35:24;12.02;;;8.23;;
18172;SDS011;9211;48.818;9.312;2023-06-26T04:37:50;13.95;;;8.05;;
18172;SDS011;9211;48.818;9.312;2023-06-26T04:40:17;14.23;;;8.40;;
18172;SDS011;9211;48.818;9.312;2023-06-26T04:42:44;12.20;;;8.07;;
18172;SDS011;9211;48.818;9.312;2023-06-26T04:45:11;11.68;;;8.20;;
18172;SDS011;9211;48.818;9.312;2023-06-26T04:47:38;12.32;;;7.93;;
18172;SDS011;9211;48.818;9.312;2023-06-26T04:50:07;13.18;;;8.27;;
18172;SDS011;9211;48.818;9.312;2023-06-26T04:52:35;13.63;;;8.27;;
18172;SDS011;9211;48.818;9.312;2023-06-26T04:55:02;13.18;;;8.40;;
18172;SDS011;9211;48.818;9.312;2023-06-26T04:57:29;15.10;;;8.30;;
18172;SDS011;9211;48.818;9.312;2023-06-26T04:59:56;13.70;;;7.97;;
18172;SDS011;9211;48.818;9.312;2023-06-26T05:02:23;13.50;;;8.05;;
18172;SDS011;9211;48.818;9.312;2023-06-26T05:04:51;13.93;;;8.30;;
18172;SDS011;9211;48.818;9.312;2023-06-26T05:07:20;13.50;;;8.20;;
18172;SDS011;9211;48.818;9.312;2023-06-26T05:09:47;13.00;;;7.97;;
18172;SDS011;9211;48.818;9.312;2023-06-26T05:12:14;13.63;;;8.50;;
18172;SDS011;9211;48.818;9.312;2023-06-26T05:14:41;13.55;;;8.43;;
18172;SDS011;9211;48.818;9.312;2023-06-26T05:17:08;12.80;;;8.23;;
18172;SDS011;9211;48.818;9.312;2023-06-26T05:19:35;12.45;;;8.43;;
18172;SDS011;9211;48.818;9.312;2023-06-26T05:22:02;12.80;;;8.13;;
18172;SDS011;9211;48.818;9.312;2023-06-26T05:24:33;12.75;;;8.10;;
18172;SDS011;9211;48.818;9.312;2023-06-26T05:27:01;11.65;;;7.90;;
18172;SDS011;9211;48.818;9.312;2023-06-26T05:29:30;12.95;;;8.40;;
18172;SDS011;9211;48.818;9.312;2023-06-26T05:31:57;16.57;;;8.13;;
18172;SDS011;9211;48.818;9.312;2023-06-26T05:34:26;12.02;;;7.88;;
18172;SDS011;9211;48.818;9.312;2023-06-26T05:36:55;13.68;;;7.97;;
18172;SDS011;9211;48.818;9.312;2023-06-26T05:39:24;12.87;;;8.00;;
18172;SDS011;9211;48.818;9.312;2023-06-26T05:41:53;12.75;;;7.95;;
18172;SDS011;9211;48.818;9.312;2023-06-26T05:44:20;12.40;;;7.95;;
18172;SDS011;9211;48.818;9.312;2023-06-26T05:46:47;13.88;;;8.00;;
18172;SDS011;9211;48.818;9.312;2023-06-26T05:49:14;12.47;;;8.10;;
18172;SDS011;9211;48.818;9.312;2023-06-26T05:51:41;11.40;;;7.70;;
18172;SDS011;9211;48.818;9.312;2023-06-26T05:54:09;15.23;;;7.90;;
18172;SDS011;9211;48.818;9.312;2023-06-26T05:56:38;11.90;;;7.45;;
18172;SDS011;9211;48.818;9.312;2023-06-26T05:59:07;10.87;;;7.30;;
18172;SDS011;9211;48.818;9.312;2023-06-26T06:01:35;10.80;;;7.43;;
18172;SDS011;9211;48.818;9.312;2023-06-26T06:04:02;12.00;;;7.38;;
18172;SDS011;9211;48.818;9.312;2023-06-26T06:06:29;10.73;;;6.93;;
18172;SDS011;9211;48.818;9.312;2023-06-26T06:08:56;9.75;;;6.97;;
18172;SDS011;9211;48.818;9.312;2023-06-26T06:11:23;12.18;;;7.63;;
18172;SDS011;9211;48.818;9.312;2023-06-26T06:13:50;11.60;;;7.15;;
18172;SDS011;9211;48.818;9.312;2023-06-26T06:16:18;11.68;;;7.32;;
18172;SDS011;9211;48.818;9.312;2023-06-26T06:18:45;10.52;;;6.90;;
18172;SDS011;9211;48.818;9.312;2023-06-26T06:21:12;10.13;;;7.03;;
18172;SDS011;9211;48.818;9.312;2023-06-26T06:23:39;9.77;;;6.60;;
18172;SDS011;9211;48.818;9.312;2023-06-26T06:26:06;9.80;;;6.53;;
18172;SDS011;9211;48.818;9.312;2023-06-26T06:28:33;11.43;;;6.80;;
18172;SDS011;9211;48.818;9.312;2023-06-26T06:31:00;10.90;;;6.90;;
18172;SDS011;9211;48.818;9.312;2023-06-26T06:33:29;9.88;;;6.78;;
18172;SDS011;9211;48.818;9.312;2023-06-26T06:35:56;9.98;;;7.15;;
18172;SDS011;9211;48.818;9.312;2023-06-26T06:38:23;10.15;;;6.95;;
18172;SDS011;9211;48.818;9.312;2023-06-26T06:40:50;12.45;;;6.97;;
18172;SDS011;9211;48.818;9.312;2023-06-26T06:43:17;12.80;;;7.00;;
18172;SDS011;9211;48.818;9.312;2023-06-26T06:45:44;12.00;;;7.10;;
18172;SDS011;9211;48.818;9.312;2023-06-26T06:48:11;10.93;;;6.38;;
18172;SDS011;9211;48.818;9.312;2023-06-26T06:50:39;10.97;;;6.60;;
18172;SDS011;9211;48.818;9.312;2023-06-26T06:53:07;10.20;;;6.65;;
18172;SDS011;9211;48.818;9.312;2023-06-26T06:55:34;11.07;;;6.40;;
18172;SDS011;9211;48.818;9.312;2023-06-26T06:58:01;10.60;;;6.53;;
18172;SDS011;9211;48.818;9.312;2023-06-26T07:00:28;10.27;;;6.30;;
18172;SDS011;9211;48.818;9.312;2023-06-26T07:02:56;11.23;;;6.78;;
18172;SDS011;9211;48.818;9.312;2023-06-26T07:05:25;12.02;;;6.68;;
18172;SDS011;9211;48.818;9.312;2023-06-26T07:07:53;10.57;;;6.82;;
18172;SDS011;9211;48.818;9.312;2023-06-26T07:10:20;8.45;;;6.25;;
18172;SDS011;9211;48.818;9.312;2023-06-26T07:12:48;14.05;;;9.60;;
18172;SDS011;9211;48.818;9.312;2023-06-26T07:15:15;16.17;;;11.13;;
18172;SDS011;9211;48.818;9.312;2023-06-26T07:17:42;19.25;;;12.43;;
18172;SDS011;9211;48.818;9.312;2023-06-26T07:20:09;13.07;;;8.85;;
18172;SDS011;9211;48.818;9.312;2023-06-26T07:22:40;11.70;;;7.40;;
18172;SDS011;9211;48.818;9.312;2023-06-26T07:25:09;10.33;;;7.20;;
18172;SDS011;9211;48.818;9.312;2023-06-26T07:27:36;9.40;;;6.80;;
18172;SDS011;9211;48.818;9.312;2023-06-26T07:30:04;9.88;;;6.80;;
18172;SDS011;9211;48.818;9.312;2023-06-26T07:32:31;9.02;;;6.30;;
18172;SDS011;9211;48.818;9.312;2023-06-26T07:34:58;9.43;;;6.50;;
18172;SDS011;9211;48.818;9.312;2023-06-26T07:37:25;11.00;;;6.57;;
18172;SDS011;9211;48.818;9.312;2023-06-26T07:39:52;8.98;;;6.30;;
18172;SDS011;9211;48.818;9.312;2023-06-26T07:42:20;9.55;;;6.43;;
18172;SDS011;9211;48.818;9.312;2023-06-26T07:44:47;8.95;;;6.28;;
18172;SDS011;9211;48.818;9.312;2023-06-26T07:47:15;10.48;;;6.25;;
18172;SDS011;9211;48.818;9.312;2023-06-26T07:49:42;10.07;;;6.53;;
18172;SDS011;9211;48.818;9.312;2023-06-26T07:52:09;9.82;;;6.20;;
18172;SDS011;9211;48.818;9.312;2023-06-26T07:54:36;10.20;;;6.35;;
18172;SDS011;9211;48.818;9.312;2023-06-26T07:57:04;9.02;;;6.00;;
18172;SDS011;9211;48.818;9.312;2023-06-26T07:59:35;9.85;;;6.35;;
18172;SDS011;9211;48.818;9.312;2023-06-26T08:02:02;9.70;;;6.32;;
18172;SDS011;9211;48.818;9.312;2023-06-26T08:04:29;10.50;;;6.35;;
18172;SDS011;9211;48.818;9.312;2023-06-26T08:06:57;9.27;;;6.20;;
18172;SDS011;9211;48.818;9.312;2023-06-26T08:09:25;8.73;;;6.07;;
18172;SDS011;9211;48.818;9.312;2023-06-26T08:11:53;8.82;;;6.50;;
18172;SDS011;9211;48.818;9.312;2023-06-26T08:14:20;10.70;;;6.47;;
18172;SDS011;9211;48.818;9.312;2023-06-26T08:16:49;10.63;;;6.32;;
18172;SDS011;9211;48.818;9.312;2023-06-26T08:19:17;12.67;;;6.83;;
18172;SDS011;9211;48.818;9.312;2023-06-26T08:21:44;8.00;;;6.00;;
18172;SDS011;9211;48.818;9.312;2023-06-26T08:24:12;9.07;;;5.90;;
18172;SDS011;9211;48.818;9.312;2023-06-26T08:26:41;10.45;;;6.03;;
18172;SDS011;9211;48.818;9.312;2023-06-26T08:29:08;9.82;;;6.20;;
18172;SDS011;9211;48.818;9.312;2023-06-26T08:31:35;9.55;;;6.00;;
18172;SDS011;9211;48.818;9.312;2023-06-26T08:34:03;10.33;;;5.83;;
18172;SDS011;9211;48.818;9.312;2023-06-26T08:36:31;9.13;;;5.82;;
18172;SDS011;9211;48.818;9.312;2023-06-26T08:38:58;8.35;;;6.20;;
18172;SDS011;9211;48.818;9.312;2023-06-26T08:41:25;9.43;;;6.05;;
18172;SDS011;9211;48.818;9.312;2023-06-26T08:43:52;9.27;;;6.15;;
18172;SDS011;9211;48.818;9.312;2023-06-26T08:46:20;9.90;;;6.13;;
18172;SDS011;9211;48.818;9.312;2023-06-26T08:48:48;8.40;;;6.05;;
18172;SDS011;9211;48.818;9.312;2023-06-26T08:51:21;8.30;;;5.88;;
18172;SDS011;9211;48.818;9.312;2023-06-26T08:53:52;10.35;;;6.13;;
18172;SDS011;9211;48.818;9.312;2023-06-26T08:56:24;8.68;;;5.72;;
18172;SDS011;9211;48.818;9.312;2023-06-26T08:58:54;9.48;;;5.18;;
18172;SDS011;9211;48.818;9.312;2023-06-26T09:01:21;9.50;;;5.22;;
18172;SDS011;9211;48.818;9.312;2023-06-26T09:03:49;9.10;;;5.23;;
18172;SDS011;9211;48.818;9.312;2023-06-26T09:06:17;8.23;;;5.13;;
18172;SDS011;9211;48.818;9.312;2023-06-26T09:08:45;7.65;;;5.13;;
18172;SDS011;9211;48.818;9.312;2023-06-26T09:11:12;8.57;;;5.38;;
18172;SDS011;9211;48.818;9.312;2023-06-26T09:13:39;6.60;;;4.85;;
18172;SDS011;9211;48.818;9.312;2023-06-26T09:16:07;7.38;;;5.40;;
18172;SDS011;9211;48.818;9.312;2023-06-26T09:18:35;8.55;;;5.07;;
18172;SDS011;9211;48.818;9.312;2023-06-26T09:21:05;9.40;;;5.30;;
18172;SDS011;9211;48.818;9.312;2023-06-26T09:23:33;8.70;;;5.15;;
18172;SDS011;9211;48.818;9.312;2023-06-26T09:26:03;9.18;;;5.50;;
18172;SDS011;9211;48.818;9.312;2023-06-26T09:28:31;8.77;;;5.03;;
18172;SDS011;9211;48.818;9.312;2023-06-26T09:31:02;7.05;;;5.45;;
18172;SDS011;9211;48.818;9.312;2023-06-26T09:33:33;7.15;;;5.20;;
18172;SDS011;9211;48.818;9.312;2023-06-26T09:36:04;8.93;;;5.20;;
18172;SDS011;9211;48.818;9.312;2023-06-26T09:38:34;7.00;;;5.22;;
18172;SDS011;9211;48.818;9.312;2023-06-26T09:41:03;7.43;;;4.97;;
18172;SDS011;9211;48.818;9.312;2023-06-26T09:43:30;8.20;;;5.10;;
18172;SDS011;9211;48.818;9.312;2023-06-26T09:45:57;9.00;;;5.18;;
18172;SDS011;9211;48.818;9.312;2023-06-26T09:48:27;6.72;;;4.65;;
18172;SDS011;9211;48.818;9.312;2023-06-26T09:50:54;8.75;;;5.10;;
18172;SDS011;9211;48.818;9.312;2023-06-26T09:53:22;9.95;;;4.88;;
18172;SDS011;9211;48.818;9.312;2023-06-26T09:55:49;9.48;;;4.90;;
18172;SDS011;9211;48.818;9.312;2023-06-26T09:58:17;9.27;;;5.10;;
18172;SDS011;9211;48.818;9.312;2023-06-26T10:00:44;8.27;;;4.78;;
18172;SDS011;9211;48.818;9.312;2023-06-26T10:03:11;8.15;;;4.70;;
18172;SDS011;9211;48.818;9.312;2023-06-26T10:05:39;7.18;;;4.80;;
18172;SDS011;9211;48.818;9.312;2023-06-26T10:08:06;8.63;;;4.90;;
18172;SDS011;9211;48.818;9.312;2023-06-26T10:10:34;7.67;;;4.90;;
18172;SDS011;9211;48.818;9.312;2023-06-26T10:13:04;7.15;;;4.90;;
18172;SDS011;9211;48.818;9.312;2023-06-26T10:15:38;8.10;;;4.90;;
18172;SDS011;9211;48.818;9.312;2023-06-26T10:18:10;7.68;;;5.15;;
18172;SDS011;9211;48.818;9.312;2023-06-26T10:20:39;8.32;;;5.20;;
18172;SDS011;9211;48.818;9.312;2023-06-26T10:23:08;9.38;;;5.03;;
18172;SDS011;9211;48.818;9.312;2023-06-26T10:25:37;7.40;;;5.10;;
18172;SDS011;9211;48.818;9.312;2023-06-26T10:28:07;7.85;;;5.00;;
18172;SDS011;9211;48.818;9.312;2023-06-26T10:30:35;8.38;;;4.82;;
18172;SDS011;9211;48.818;9.312;2023-06-26T10:33:04;12.15;;;5.30;;
18172;SDS011;9211;48.818;9.312;2023-06-26T10:35:33;8.70;;;5.00;;
18172;SDS011;9211;48.818;9.312;2023-06-26T10:38:00;8.18;;;5.30;;
18172;SDS011;9211;48.818;9.312;2023-06-26T10:40:33;9.30;;;5.32;;
18172;SDS011;9211;48.818;9.312;2023-06-26T10:43:07;7.78;;;5.43;;
18172;SDS011;9211;48.818;9.312;2023-06-26T10:45:35;9.75;;;5.50;;
18172;SDS011;9211;48.818;9.312;2023-06-26T10:48:02;11.25;;;5.72;;
18172;SDS011;9211;48.818;9.312;2023-06-26T10:50:31;7.82;;;5.32;;
18172;SDS011;9211;48.818;9.312;2023-06-26T10:53:10;16.58;;;5.68;;
18172;SDS011;9211;48.818;9.312;2023-06-26T10:55:42;11.95;;;5.80;;
18172;SDS011;9211;48.818;9.312;2023-06-26T10:58:26;13.63;;;5.57;;
18172;SDS011;9211;48.818;9.312;2023-06-26T11:01:14;16.77;;;5.63;;
18172;SDS011;9211;48.818;9.312;2023-06-26T11:03:48;8.95;;;5.85;;
18172;SDS011;9211;48.818;9.312;2023-06-26T11:06:28;10.07;;;5.95;;
18172;SDS011;9211;48.818;9.312;2023-06-26T11:08:59;10.18;;;5.88;;
18172;SDS011;9211;48.818;9.312;2023-06-26T11:11:54;9.75;;;5.88;;
18172;SDS011;9211;48.818;9.312;2023-06-26T11:14:29;8.70;;;6.00;;
18172;SDS011;9211;48.818;9.312;2023-06-26T11:16:58;7.75;;;5.93;;
18172;SDS011;9211;48.818;9.312;2023-06-26T11:19:30;8.90;;;6.25;;
18172;SDS011;9211;48.818;9.312;2023-06-26T11:21:58;8.70;;;5.57;;
18172;SDS011;9211;48.818;9.312;2023-06-26T11:24:26;7.10;;;5.40;;
18172;SDS011;9211;48.818;9.312;2023-06-26T11:26:59;7.35;;;5.70;;
18172;SDS011;9211;48.818;9.312;2023-06-26T11:29:27;8.07;;;5.53;;
18172;SDS011;9211;48.818;9.312;2023-06-26T11:32:01;11.73;;;5.68;;
18172;SDS011;9211;48.818;9.312;2023-06-26T11:34:32;8.15;;;5.57;;
18172;SDS011;9211;48.818;9.312;2023-06-26T11:37:00;9.07;;;6.05;;
18172;SDS011;9211;48.818;9.312;2023-06-26T11:39:30;7.25;;;5.68;;
18172;SDS011;9211;48.818;9.312;2023-06-26T11:41:57;10.07;;;5.85;;
18172;SDS011;9211;48.818;9.312;2023-06-26T11:44:25;8.02;;;5.78;;
18172;SDS011;9211;48.818;9.312;2023-06-26T11:46:56;8.43;;;5.68;;
18172;SDS011;9211;48.818;9.312;2023-06-26T11:49:24;10.32;;;5.93;;
18172;SDS011;9211;48.818;9.312;2023-06-26T11:51:53;9.13;;;5.93;;
18172;SDS011;9211;48.818;9.312;2023-06-26T11:54:23;8.67;;;5.70;;
18172;SDS011;9211;48.818;9.312;2023-06-26T11:56:52;13.27;;;5.70;;
18172;SDS011;9211;48.818;9.312;2023-06-26T11:59:21;9.77;;;5.90;;
18172;SDS011;9211;48.818;9.312;2023-06-26T12:01:49;8.47;;;5.57;;
18172;SDS011;9211;48.818;9.312;2023-06-26T12:04:17;10.25;;;5.80;;
18172;SDS011;9211;48.818;9.312;2023-06-26T12:06:46;15.52;;;6.05;;
18172;SDS011;9211;48.818;9.312;2023-06-26T12:09:16;9.60;;;5.53;;
18172;SDS011;9211;48.818;9.312;2023-06-26T12:11:45;9.02;;;5.20;;
18172;SDS011;9211;48.818;9.312;2023-06-26T12:14:14;9.50;;;5.68;;
18172;SDS011;9211;48.818;9.312;2023-06-26T12:16:43;12.55;;;5.40;;
18172;SDS011;9211;48.818;9.312;2023-06-26T12:19:10;13.07;;;5.55;;
18172;SDS011;9211;48.818;9.312;2023-06-26T12:21:46;10.45;;;5.43;;
18172;SDS011;9211;48.818;9.312;2023-06-26T12:24:18;10.38;;;5.63;;
18172;SDS011;9211;48.818;9.312;2023-06-26T12:26:47;10.15;;;5.72;;
18172;SDS011;9211;48.818;9.312;2023-06-26T12:29:17;9.77;;;5.55;;
18172;SDS011;9211;48.818;9.312;2023-06-26T12:31:45;9.55;;;5.82;;
18172;SDS011;9211;48.818;9.312;2023-06-26T12:34:17;9.25;;;5.60;;
18172;SDS011;9211;48.818;9.312;2023-06-26T12:36:46;8.47;;;5.80;;
18172;SDS011;9211;48.818;9.312;2023-06-26T12:39:15;10.43;;;5.77;;
18172;SDS011;9211;48.818;9.312;2023-06-26T12:41:47;8.80;;;5.63;;
18172;SDS011;9211;48.818;9.312;2023-06-26T12:44:18;9.73;;;5.90;;
18172;SDS011;9211;48.818;9.312;2023-06-26T12:46:46;12.02;;;5.95;;
18172;SDS011;9211;48.818;9.312;2023-06-26T12:49:15;8.10;;;5.73;;
18172;SDS011;9211;48.818;9.312;2023-06-26T12:51:43;7.32;;;5.45;;
18172;SDS011;9211;48.818;9.312;2023-06-26T12:54:10;8.10;;;5.80;;
18172;SDS011;9211;48.818;9.312;2023-06-26T12:56:37;13.70;;;5.80;;
18172;SDS011;9211;48.818;9.312;2023-06-26T12:59:05;9.40;;;5.50;;
18172;SDS011;9211;48.818;9.312;2023-06-26T13:01:32;8.15;;;5.30;;
18172;SDS011;9211;48.818;9.312;2023-06-26T13:03:59;8.70;;;5.75;;
18172;SDS011;9211;48.818;9.312;2023-06-26T13:06:26;9.52;;;5.60;;
18172;SDS011;9211;48.818;9.312;2023-06-26T13:08:53;9.07;;;5.55;;
18172;SDS011;9211;48.818;9.312;2023-06-26T13:11:20;7.00;;;5.30;;
18172;SDS011;9211;48.818;9.312;2023-06-26T13:13:48;9.05;;;5.45;;
18172;SDS011;9211;48.818;9.312;2023-06-26T13:16:16;10.43;;;5.40;;
18172;SDS011;9211;48.818;9.312;2023-06-26T13:18:44;9.20;;;5.53;;
18172;SDS011;9211;48.818;9.312;2023-06-26T13:21:12;8.70;;;5.18;;
18172;SDS011;9211;48.818;9.312;2023-06-26T13:23:39;11.30;;;5.53;;
18172;SDS011;9211;48.818;9.312;2023-06-26T13:26:06;7.03;;;5.20;;
18172;SDS011;9211;48.818;9.312;2023-06-26T13:28:33;10.30;;;5.10;;
18172;SDS011;9211;48.818;9.312;2023-06-26T13:31:00;11.60;;;5.00;;
18172;SDS011;9211;48.818;9.312;2023-06-26T13:33:29;9.55;;;5.00;;
18172;SDS011;9211;48.818;9.312;2023-06-26T13:35:56;7.47;;;4.57;;
18172;SDS011;9211;48.818;9.312;2023-06-26T13:38:24;8.48;;;4.70;;
18172;SDS011;9211;48.818;9.312;2023-06-26T13:40:52;9.88;;;5.20;;
18172;SDS011;9211;48.818;9.312;2023-06-26T13:43:20;10.17;;;4.60;;
18172;SDS011;9211;48.818;9.312;2023-06-26T13:45:47;10.25;;;4.90;;
18172;SDS011;9211;48.818;9.312;2023-06-26T13:48:15;10.20;;;4.78;;
18172;SDS011;9211;48.818;9.312;2023-06-26T13:50:43;9.68;;;4.80;;
18172;SDS011;9211;48.818;9.312;2023-06-26T13:53:11;8.07;;;4.90;;
18172;SDS011;9211;48.818;9.312;2023-06-26T13:55:39;7.07;;;4.47;;
18172;SDS011;9211;48.818;9.312;2023-06-26T13:58:07;7.75;;;4.43;;
18172;SDS011;9211;48.818;9.312;2023-06-26T14:00:34;7.43;;;4.53;;
18172;SDS011;9211;48.818;9.312;2023-06-26T14:03:02;7.32;;;4.40;;
18172;SDS011;9211;48.818;9.312;2023-06-26T14:05:31;6.82;;;4.50;;
18172;SDS011;9211;48.818;9.312;2023-06-26T14:08:01;5.68;;;4.20;;
18172;SDS011;9211;48.818;9.312;2023-06-26T14:10:30;6.30;;;4.10;;
18172;SDS011;9211;48.818;9.312;2023-06-26T14:12:58;6.00;;;4.10;;
18172;SDS011;9211;48.818;9.312;2023-06-26T14:15:25;7.30;;;4.35;;
18172;SDS011;9211;48.818;9.312;2023-06-26T14:17:53;6.07;;;3.88;;
18172;SDS011;9211;48.818;9.312;2023-06-26T14:20:21;7.55;;;4.00;;
18172;SDS011;9211;48.818;9.312;2023-06-26T14:22:48;6.68;;;3.90;;
18172;SDS011;9211;48.818;9.312;2023-06-26T14:25:17;5.20;;;3.50;;
18172;SDS011;9211;48.818;9.312;2023-06-26T14:27:44;7.60;;;3.83;;
18172;SDS011;9211;48.818;9.312;2023-06-26T14:30:11;6.50;;;3.30;;
18172;SDS011;9211;48.818;9.312;2023-06-26T14:32:38;5.20;;;3.17;;
18172;SDS011;9211;48.818;9.312;2023-06-26T14:35:05;4.90;;;3.22;;
18172;SDS011;9211;48.818;9.312;2023-06-26T14:37:33;6.70;;;3.20;;
18172;SDS011;9211;48.818;9.312;2023-06-26T14:40:02;4.53;;;3.13;;
18172;SDS011;9211;48.818;9.312;2023-06-26T14:42:30;6.55;;;3.30;;
18172;SDS011;9211;48.818;9.312;2023-06-26T14:44:57;4.13;;;2.80;;
18172;SDS011;9211;48.818;9.312;2023-06-26T14:47:24;5.82;;;2.80;;
18172;SDS011;9211;48.818;9.312;2023-06-26T14:49:51;6.00;;;2.92;;
18172;SDS011;9211;48.818;9.312;2023-06-26T14:52:18;3.85;;;2.72;;
18172;SDS011;9211;48.818;9.312;2023-06-26T14:54:45;4.60;;;2.70;;
18172;SDS011;9211;48.818;9.312;2023-06-26T14:57:12;5.45;;;3.13;;
18172;SDS011;9211;48.818;9.312;2023-06-26T14:59:40;6.77;;;2.90;;